Terminal Aerodrome Forecast
Issued by NWS

Home | Current Version | Previous Version | Text Only | Print | Product List | Glossary On
Versions: 1 2 3 4 5 6 7 8 9 10 11 12 13 14 15 16 17
475
FTUS46 KPDT 271129
TAFRDM
TAF
KRDM 271129Z 2712/2812 17005KT P6SM -SHRA SCT050 BKN070
     FM271900 31014G21KT P6SM VCSH SCT050 BKN070
     FM280300 30005KT P6SM SCT070 SCT200
     FM280700 17004KT P6SM SCT100 BKN200=

USA.gov is the U.S. government's official web portal to all federal, state and local government web resources and services.